sensor_id;sensor_type;location;lat;lon;timestamp;temperature;humidity
17599;DHT22;8918;52.092;5.232;2023-12-20T00:00:05;6.50;99.90
17599;DHT22;8918;52.092;5.232;2023-12-20T00:02:31;6.40;99.90
17599;DHT22;8918;52.092;5.232;2023-12-20T00:04:57;6.40;99.90
17599;DHT22;8918;52.092;5.232;2023-12-20T00:07:22;6.40;99.90
17599;DHT22;8918;52.092;5.232;2023-12-20T00:09:48;6.40;99.90
17599;DHT22;8918;52.092;5.232;2023-12-20T00:12:13;6.30;99.90
17599;DHT22;8918;52.092;5.232;2023-12-20T00:14:39;6.30;99.90
17599;DHT22;8918;52.092;5.232;2023-12-20T00:17:05;6.30;99.90
17599;DHT22;8918;52.092;5.232;2023-12-20T00:19:30;6.30;99.90
17599;DHT22;8918;52.092;5.232;2023-12-20T00:21:56;6.30;99.90
17599;DHT22;8918;52.092;5.232;2023-12-20T00:24:22;6.30;99.90
17599;DHT22;8918;52.092;5.232;2023-12-20T00:26:47;6.30;99.90
17599;DHT22;8918;52.092;5.232;2023-12-20T00:29:13;6.30;99.90
17599;DHT22;8918;52.092;5.232;2023-12-20T00:31:38;6.20;99.90
17599;DHT22;8918;52.092;5.232;2023-12-20T00:34:04;6.20;99.90
17599;DHT22;8918;52.092;5.232;2023-12-20T00:36:29;6.20;99.90
17599;DHT22;8918;52.092;5.232;2023-12-20T00:38:55;6.20;99.90
17599;DHT22;8918;52.092;5.232;2023-12-20T00:41:20;6.20;99.90
17599;DHT22;8918;52.092;5.232;2023-12-20T00:43:46;6.20;99.90
17599;DHT22;8918;52.092;5.232;2023-12-20T00:46:12;6.20;99.90
17599;DHT22;8918;52.092;5.232;2023-12-20T00:48:37;6.30;99.90
17599;DHT22;8918;52.092;5.232;2023-12-20T00:51:03;6.30;99.90
17599;DHT22;8918;52.092;5.232;2023-12-20T00:53:29;6.30;99.90
17599;DHT22;8918;52.092;5.232;2023-12-20T00:55:55;6.20;99.90
17599;DHT22;8918;52.092;5.232;2023-12-20T00:58:20;6.20;99.90
17599;DHT22;8918;52.092;5.232;2023-12-20T01:00:46;6.20;99.90
17599;DHT22;8918;52.092;5.232;2023-12-20T01:03:12;6.10;99.90
17599;DHT22;8918;52.092;5.232;2023-12-20T01:05:37;6.10;99.90
17599;DHT22;8918;52.092;5.232;2023-12-20T01:08:03;6.10;99.90
17599;DHT22;8918;52.092;5.232;2023-12-20T01:10:29;6.00;99.90
17599;DHT22;8918;52.092;5.232;2023-12-20T01:12:55;6.10;99.90
17599;DHT22;8918;52.092;5.232;2023-12-20T01:15:20;6.20;99.90
17599;DHT22;8918;52.092;5.232;2023-12-20T01:17:46;6.20;99.90
17599;DHT22;8918;52.092;5.232;2023-12-20T01:20:13;6.30;99.90
17599;DHT22;8918;52.092;5.232;2023-12-20T01:22:39;6.30;99.90
17599;DHT22;8918;52.092;5.232;2023-12-20T01:25:04;6.20;99.90
17599;DHT22;8918;52.092;5.232;2023-12-20T01:27:30;6.20;99.90
17599;DHT22;8918;52.092;5.232;2023-12-20T01:29:57;6.30;99.90
17599;DHT22;8918;52.092;5.232;2023-12-20T01:32:22;6.30;99.90
17599;DHT22;8918;52.092;5.232;2023-12-20T01:34:48;6.30;99.90
17599;DHT22;8918;52.092;5.232;2023-12-20T01:37:14;6.30;99.90
17599;DHT22;8918;52.092;5.232;2023-12-20T01:39:39;6.40;99.90
17599;DHT22;8918;52.092;5.232;2023-12-20T01:42:05;6.50;99.90
17599;DHT22;8918;52.092;5.232;2023-12-20T01:44:31;6.50;99.90
17599;DHT22;8918;52.092;5.232;2023-12-20T01:46:56;6.60;99.90
17599;DHT22;8918;52.092;5.232;2023-12-20T01:49:23;6.50;99.90
17599;DHT22;8918;52.092;5.232;2023-12-20T01:51:49;6.50;99.90
17599;DHT22;8918;52.092;5.232;2023-12-20T01:54:15;6.40;99.90
17599;DHT22;8918;52.092;5.232;2023-12-20T01:56:42;6.40;99.90
17599;DHT22;8918;52.092;5.232;2023-12-20T01:59:09;6.50;99.90
17599;DHT22;8918;52.092;5.232;2023-12-20T02:01:35;6.60;99.90
17599;DHT22;8918;52.092;5.232;2023-12-20T02:04:01;6.50;99.90
17599;DHT22;8918;52.092;5.232;2023-12-20T02:06:30;6.60;99.90
17599;DHT22;8918;52.092;5.232;2023-12-20T02:08:59;6.60;99.90
17599;DHT22;8918;52.092;5.232;2023-12-20T02:11:25;6.60;99.90
17599;DHT22;8918;52.092;5.232;2023-12-20T02:13:51;6.60;99.90
17599;DHT22;8918;52.092;5.232;2023-12-20T02:16:17;6.60;99.90
17599;DHT22;8918;52.092;5.232;2023-12-20T02:18:43;6.60;99.90
17599;DHT22;8918;52.092;5.232;2023-12-20T02:21:10;6.60;99.90
17599;DHT22;8918;52.092;5.232;2023-12-20T02:23:35;6.70;99.90
17599;DHT22;8918;52.092;5.232;2023-12-20T02:26:02;6.70;99.90
17599;DHT22;8918;52.092;5.232;2023-12-20T02:28:28;6.70;99.90
17599;DHT22;8918;52.092;5.232;2023-12-20T02:30:53;6.70;99.90
17599;DHT22;8918;52.092;5.232;2023-12-20T02:33:19;6.80;99.90
17599;DHT22;8918;52.092;5.232;2023-12-20T02:35:44;6.80;99.90
17599;DHT22;8918;52.092;5.232;2023-12-20T02:38:10;6.80;99.90
17599;DHT22;8918;52.092;5.232;2023-12-20T02:40:35;6.80;99.90
17599;DHT22;8918;52.092;5.232;2023-12-20T02:43:01;6.80;99.90
17599;DHT22;8918;52.092;5.232;2023-12-20T02:45:27;6.80;99.90
17599;DHT22;8918;52.092;5.232;2023-12-20T02:47:53;6.80;99.90
17599;DHT22;8918;52.092;5.232;2023-12-20T02:50:18;6.80;99.90
17599;DHT22;8918;52.092;5.232;2023-12-20T02:52:45;6.80;99.90
17599;DHT22;8918;52.092;5.232;2023-12-20T02:55:11;6.80;99.90
17599;DHT22;8918;52.092;5.232;2023-12-20T02:57:36;6.80;99.90
17599;DHT22;8918;52.092;5.232;2023-12-20T03:00:08;6.90;99.90
17599;DHT22;8918;52.092;5.232;2023-12-20T03:02:34;6.90;99.90
17599;DHT22;8918;52.092;5.232;2023-12-20T03:05:00;7.00;99.90
17599;DHT22;8918;52.092;5.232;2023-12-20T03:07:25;7.00;99.90
17599;DHT22;8918;52.092;5.232;2023-12-20T03:09:51;7.00;99.90
17599;DHT22;8918;52.092;5.232;2023-12-20T03:12:16;7.00;99.90
17599;DHT22;8918;52.092;5.232;2023-12-20T03:14:43;7.10;99.90
17599;DHT22;8918;52.092;5.232;2023-12-20T03:17:09;7.10;99.90
17599;DHT22;8918;52.092;5.232;2023-12-20T03:19:35;7.10;99.90
17599;DHT22;8918;52.092;5.232;2023-12-20T03:22:01;7.10;99.90
17599;DHT22;8918;52.092;5.232;2023-12-20T03:24:27;7.10;99.90
17599;DHT22;8918;52.092;5.232;2023-12-20T03:26:53;7.10;99.90
17599;DHT22;8918;52.092;5.232;2023-12-20T03:29:18;7.00;99.90
17599;DHT22;8918;52.092;5.232;2023-12-20T03:31:44;7.00;99.90
17599;DHT22;8918;52.092;5.232;2023-12-20T03:34:11;7.00;99.90
17599;DHT22;8918;52.092;5.232;2023-12-20T03:36:37;7.00;99.90
17599;DHT22;8918;52.092;5.232;2023-12-20T03:39:03;7.00;99.90
17599;DHT22;8918;52.092;5.232;2023-12-20T03:41:28;7.00;99.90
17599;DHT22;8918;52.092;5.232;2023-12-20T03:43:54;7.00;99.90
17599;DHT22;8918;52.092;5.232;2023-12-20T03:46:19;7.00;99.90
17599;DHT22;8918;52.092;5.232;2023-12-20T03:48:45;7.00;99.90
17599;DHT22;8918;52.092;5.232;2023-12-20T03:51:12;7.10;99.90
17599;DHT22;8918;52.092;5.232;2023-12-20T03:53:37;7.10;99.90
17599;DHT22;8918;52.092;5.232;2023-12-20T03:56:05;7.10;99.90
17599;DHT22;8918;52.092;5.232;2023-12-20T03:58:30;7.00;99.90
17599;DHT22;8918;52.092;5.232;2023-12-20T04:00:56;7.00;99.90
17599;DHT22;8918;52.092;5.232;2023-12-20T04:03:23;7.00;99.90
17599;DHT22;8918;52.092;5.232;2023-12-20T04:05:49;7.10;99.90
17599;DHT22;8918;52.092;5.232;2023-12-20T04:08:15;7.10;99.90
17599;DHT22;8918;52.092;5.232;2023-12-20T04:10:41;7.10;99.90
17599;DHT22;8918;52.092;5.232;2023-12-20T04:13:06;7.10;99.90
17599;DHT22;8918;52.092;5.232;2023-12-20T04:15:32;7.20;99.90
17599;DHT22;8918;52.092;5.232;2023-12-20T04:17:57;7.20;99.90
17599;DHT22;8918;52.092;5.232;2023-12-20T04:20:23;7.20;99.90
17599;DHT22;8918;52.092;5.232;2023-12-20T04:22:49;7.20;99.90
17599;DHT22;8918;52.092;5.232;2023-12-20T04:25:14;7.20;99.90
17599;DHT22;8918;52.092;5.232;2023-12-20T04:27:40;7.20;99.90
17599;DHT22;8918;52.092;5.232;2023-12-20T04:30:06;7.20;99.90
17599;DHT22;8918;52.092;5.232;2023-12-20T04:32:33;7.20;99.90
17599;DHT22;8918;52.092;5.232;2023-12-20T04:34:58;7.20;99.90
17599;DHT22;8918;52.092;5.232;2023-12-20T04:37:24;7.30;99.90
17599;DHT22;8918;52.092;5.232;2023-12-20T04:39:50;7.30;99.90
17599;DHT22;8918;52.092;5.232;2023-12-20T04:42:16;7.20;99.90
17599;DHT22;8918;52.092;5.232;2023-12-20T04:44:41;7.30;99.90
17599;DHT22;8918;52.092;5.232;2023-12-20T04:47:09;7.40;99.90
17599;DHT22;8918;52.092;5.232;2023-12-20T04:49:34;7.40;99.90
17599;DHT22;8918;52.092;5.232;2023-12-20T04:52:00;7.40;99.90
17599;DHT22;8918;52.092;5.232;2023-12-20T04:54:27;7.50;99.90
17599;DHT22;8918;52.092;5.232;2023-12-20T04:56:52;7.50;99.90
17599;DHT22;8918;52.092;5.232;2023-12-20T04:59:19;7.40;99.90
17599;DHT22;8918;52.092;5.232;2023-12-20T05:01:45;7.40;99.90
17599;DHT22;8918;52.092;5.232;2023-12-20T05:04:10;7.50;99.90
17599;DHT22;8918;52.092;5.232;2023-12-20T05:06:36;7.40;99.90
17599;DHT22;8918;52.092;5.232;2023-12-20T05:09:01;7.40;99.90
17599;DHT22;8918;52.092;5.232;2023-12-20T05:11:27;7.40;99.90
17599;DHT22;8918;52.092;5.232;2023-12-20T05:13:52;7.50;99.90
17599;DHT22;8918;52.092;5.232;2023-12-20T05:16:18;7.50;99.90
17599;DHT22;8918;52.092;5.232;2023-12-20T05:18:45;7.50;99.90
17599;DHT22;8918;52.092;5.232;2023-12-20T05:21:11;7.50;99.90
17599;DHT22;8918;52.092;5.232;2023-12-20T05:23:36;7.40;99.90
17599;DHT22;8918;52.092;5.232;2023-12-20T05:26:02;7.40;99.90
17599;DHT22;8918;52.092;5.232;2023-12-20T05:28:28;7.40;99.90
17599;DHT22;8918;52.092;5.232;2023-12-20T05:30:54;7.40;99.90
17599;DHT22;8918;52.092;5.232;2023-12-20T05:33:19;7.40;99.90
17599;DHT22;8918;52.092;5.232;2023-12-20T05:35:45;7.40;99.90
17599;DHT22;8918;52.092;5.232;2023-12-20T05:38:10;7.40;99.90
17599;DHT22;8918;52.092;5.232;2023-12-20T05:40:36;7.40;99.90
17599;DHT22;8918;52.092;5.232;2023-12-20T05:43:01;7.40;99.90
17599;DHT22;8918;52.092;5.232;2023-12-20T05:45:27;7.40;99.90
17599;DHT22;8918;52.092;5.232;2023-12-20T05:47:56;7.40;99.90
17599;DHT22;8918;52.092;5.232;2023-12-20T05:50:22;7.40;99.90
17599;DHT22;8918;52.092;5.232;2023-12-20T05:52:47;7.40;99.90
17599;DHT22;8918;52.092;5.232;2023-12-20T05:55:13;7.40;99.90
17599;DHT22;8918;52.092;5.232;2023-12-20T05:57:38;7.50;99.90
17599;DHT22;8918;52.092;5.232;2023-12-20T06:00:04;7.40;99.90
17599;DHT22;8918;52.092;5.232;2023-12-20T06:02:31;7.50;99.90
17599;DHT22;8918;52.092;5.232;2023-12-20T06:04:58;7.50;99.90
17599;DHT22;8918;52.092;5.232;2023-12-20T06:07:23;7.50;99.90
17599;DHT22;8918;52.092;5.232;2023-12-20T06:09:49;7.50;99.90
17599;DHT22;8918;52.092;5.232;2023-12-20T06:12:14;7.50;99.90
17599;DHT22;8918;52.092;5.232;2023-12-20T06:14:40;7.50;99.90
17599;DHT22;8918;52.092;5.232;2023-12-20T06:17:05;7.60;99.90
17599;DHT22;8918;52.092;5.232;2023-12-20T06:19:31;7.60;99.90
17599;DHT22;8918;52.092;5.232;2023-12-20T06:21:56;7.60;99.90
17599;DHT22;8918;52.092;5.232;2023-12-20T06:24:22;7.50;99.90
17599;DHT22;8918;52.092;5.232;2023-12-20T06:26:47;7.50;99.90
17599;DHT22;8918;52.092;5.232;2023-12-20T06:29:13;7.60;99.90
17599;DHT22;8918;52.092;5.232;2023-12-20T06:31:39;7.70;99.90
17599;DHT22;8918;52.092;5.232;2023-12-20T06:34:04;7.60;99.90
17599;DHT22;8918;52.092;5.232;2023-12-20T06:36:30;7.60;99.90
17599;DHT22;8918;52.092;5.232;2023-12-20T06:38:55;7.70;99.90
17599;DHT22;8918;52.092;5.232;2023-12-20T06:41:24;7.70;99.90
17599;DHT22;8918;52.092;5.232;2023-12-20T06:43:50;7.80;99.90
17599;DHT22;8918;52.092;5.232;2023-12-20T06:46:16;7.80;99.90
17599;DHT22;8918;52.092;5.232;2023-12-20T06:48:42;7.70;99.90
17599;DHT22;8918;52.092;5.232;2023-12-20T06:51:12;7.70;99.90
17599;DHT22;8918;52.092;5.232;2023-12-20T06:53:38;7.70;99.90
17599;DHT22;8918;52.092;5.232;2023-12-20T06:56:03;7.80;99.90
17599;DHT22;8918;52.092;5.232;2023-12-20T06:58:29;7.80;99.90
17599;DHT22;8918;52.092;5.232;2023-12-20T07:00:55;7.80;99.90
17599;DHT22;8918;52.092;5.232;2023-12-20T07:03:20;7.80;99.90
17599;DHT22;8918;52.092;5.232;2023-12-20T07:05:46;7.80;99.90
17599;DHT22;8918;52.092;5.232;2023-12-20T07:08:11;7.70;99.90
17599;DHT22;8918;52.092;5.232;2023-12-20T07:10:39;7.70;99.90
17599;DHT22;8918;52.092;5.232;2023-12-20T07:13:05;7.80;99.90
17599;DHT22;8918;52.092;5.232;2023-12-20T07:15:31;7.80;99.90
17599;DHT22;8918;52.092;5.232;2023-12-20T07:17:57;7.80;99.90
17599;DHT22;8918;52.092;5.232;2023-12-20T07:20:22;7.80;99.90
17599;DHT22;8918;52.092;5.232;2023-12-20T07:22:48;7.80;99.90
17599;DHT22;8918;52.092;5.232;2023-12-20T07:25:13;7.90;99.90
17599;DHT22;8918;52.092;5.232;2023-12-20T07:27:39;7.90;99.90
17599;DHT22;8918;52.092;5.232;2023-12-20T07:30:05;7.90;99.90
17599;DHT22;8918;52.092;5.232;2023-12-20T07:32:31;7.90;99.90
17599;DHT22;8918;52.092;5.232;2023-12-20T07:34:57;7.90;99.90
17599;DHT22;8918;52.092;5.232;2023-12-20T07:37:23;8.00;99.90
17599;DHT22;8918;52.092;5.232;2023-12-20T07:39:48;8.00;99.90
17599;DHT22;8918;52.092;5.232;2023-12-20T07:42:14;7.90;99.90
17599;DHT22;8918;52.092;5.232;2023-12-20T07:44:39;7.90;99.90
17599;DHT22;8918;52.092;5.232;2023-12-20T07:47:05;8.00;99.90
17599;DHT22;8918;52.092;5.232;2023-12-20T07:49:31;8.00;99.90
17599;DHT22;8918;52.092;5.232;2023-12-20T07:51:57;8.00;99.90
17599;DHT22;8918;52.092;5.232;2023-12-20T07:54:23;8.10;99.90
17599;DHT22;8918;52.092;5.232;2023-12-20T07:56:49;8.10;99.90
17599;DHT22;8918;52.092;5.232;2023-12-20T07:59:14;8.10;99.90
17599;DHT22;8918;52.092;5.232;2023-12-20T08:01:40;8.00;99.90
17599;DHT22;8918;52.092;5.232;2023-12-20T08:04:05;8.00;99.90
17599;DHT22;8918;52.092;5.232;2023-12-20T08:06:31;8.00;99.90
17599;DHT22;8918;52.092;5.232;2023-12-20T08:08:57;8.00;99.90
17599;DHT22;8918;52.092;5.232;2023-12-20T08:11:22;8.00;99.90
17599;DHT22;8918;52.092;5.232;2023-12-20T08:13:48;8.00;99.90
17599;DHT22;8918;52.092;5.232;2023-12-20T08:16:14;8.00;99.90
17599;DHT22;8918;52.092;5.232;2023-12-20T08:18:41;8.00;99.90
17599;DHT22;8918;52.092;5.232;2023-12-20T08:21:06;8.10;99.90
17599;DHT22;8918;52.092;5.232;2023-12-20T08:23:35;8.10;99.90
17599;DHT22;8918;52.092;5.232;2023-12-20T08:26:05;8.10;99.90
17599;DHT22;8918;52.092;5.232;2023-12-20T08:28:31;8.10;99.90
17599;DHT22;8918;52.092;5.232;2023-12-20T08:30:56;8.20;99.90
17599;DHT22;8918;52.092;5.232;2023-12-20T08:33:22;8.20;99.90
17599;DHT22;8918;52.092;5.232;2023-12-20T08:35:48;8.20;99.90
17599;DHT22;8918;52.092;5.232;2023-12-20T08:38:13;8.30;99.90
17599;DHT22;8918;52.092;5.232;2023-12-20T08:40:39;8.20;99.90
17599;DHT22;8918;52.092;5.232;2023-12-20T08:43:05;8.20;99.90
17599;DHT22;8918;52.092;5.232;2023-12-20T08:45:30;8.10;99.90
17599;DHT22;8918;52.092;5.232;2023-12-20T08:47:56;8.20;99.90
17599;DHT22;8918;52.092;5.232;2023-12-20T08:50:22;8.20;99.90
17599;DHT22;8918;52.092;5.232;2023-12-20T08:52:47;8.30;99.90
17599;DHT22;8918;52.092;5.232;2023-12-20T08:55:13;8.30;99.90
17599;DHT22;8918;52.092;5.232;2023-12-20T08:57:40;8.20;99.90
17599;DHT22;8918;52.092;5.232;2023-12-20T09:00:06;8.20;99.90
17599;DHT22;8918;52.092;5.232;2023-12-20T09:02:33;8.20;99.90
17599;DHT22;8918;52.092;5.232;2023-12-20T09:05:02;8.10;99.90
17599;DHT22;8918;52.092;5.232;2023-12-20T09:07:28;8.10;99.90
17599;DHT22;8918;52.092;5.232;2023-12-20T09:09:57;8.20;99.90
17599;DHT22;8918;52.092;5.232;2023-12-20T09:12:23;8.20;99.90
17599;DHT22;8918;52.092;5.232;2023-12-20T09:14:49;8.40;99.90
17599;DHT22;8918;52.092;5.232;2023-12-20T09:17:16;8.40;99.90
17599;DHT22;8918;52.092;5.232;2023-12-20T09:19:42;8.30;99.90
17599;DHT22;8918;52.092;5.232;2023-12-20T09:22:09;8.40;99.90
17599;DHT22;8918;52.092;5.232;2023-12-20T09:24:35;8.30;99.90
17599;DHT22;8918;52.092;5.232;2023-12-20T09:27:01;8.40;99.90
17599;DHT22;8918;52.092;5.232;2023-12-20T09:29:26;8.40;99.90
17599;DHT22;8918;52.092;5.232;2023-12-20T09:31:52;8.40;99.90
17599;DHT22;8918;52.092;5.232;2023-12-20T09:34:17;8.40;99.90
17599;DHT22;8918;52.092;5.232;2023-12-20T09:36:43;8.40;99.90
17599;DHT22;8918;52.092;5.232;2023-12-20T09:39:16;8.40;99.90
17599;DHT22;8918;52.092;5.232;2023-12-20T09:41:45;8.60;99.90
17599;DHT22;8918;52.092;5.232;2023-12-20T09:44:15;8.50;99.90
17599;DHT22;8918;52.092;5.232;2023-12-20T09:46:45;8.50;99.90
17599;DHT22;8918;52.092;5.232;2023-12-20T09:49:11;8.60;99.90
17599;DHT22;8918;52.092;5.232;2023-12-20T09:51:38;8.60;99.90
17599;DHT22;8918;52.092;5.232;2023-12-20T09:54:05;8.60;99.90
17599;DHT22;8918;52.092;5.232;2023-12-20T09:56:30;8.60;99.90
17599;DHT22;8918;52.092;5.232;2023-12-20T09:58:56;8.70;99.90
17599;DHT22;8918;52.092;5.232;2023-12-20T10:01:26;8.60;99.90
17599;DHT22;8918;52.092;5.232;2023-12-20T10:03:54;8.60;99.90
17599;DHT22;8918;52.092;5.232;2023-12-20T10:06:21;8.60;99.90
17599;DHT22;8918;52.092;5.232;2023-12-20T10:08:47;8.70;99.90
17599;DHT22;8918;52.092;5.232;2023-12-20T10:11:13;8.70;99.90
17599;DHT22;8918;52.092;5.232;2023-12-20T10:13:40;8.70;99.90
17599;DHT22;8918;52.092;5.232;2023-12-20T10:16:06;8.70;99.90
17599;DHT22;8918;52.092;5.232;2023-12-20T10:18:33;8.70;99.90
17599;DHT22;8918;52.092;5.232;2023-12-20T10:20:59;8.70;99.90
17599;DHT22;8918;52.092;5.232;2023-12-20T10:23:25;8.80;99.90
17599;DHT22;8918;52.092;5.232;2023-12-20T10:26:00;8.80;99.90
17599;DHT22;8918;52.092;5.232;2023-12-20T10:28:26;8.80;99.90
17599;DHT22;8918;52.092;5.232;2023-12-20T10:30:54;8.90;99.90
17599;DHT22;8918;52.092;5.232;2023-12-20T10:33:25;8.90;99.90
17599;DHT22;8918;52.092;5.232;2023-12-20T10:36:00;8.90;99.90
17599;DHT22;8918;52.092;5.232;2023-12-20T10:38:25;8.90;99.90
17599;DHT22;8918;52.092;5.232;2023-12-20T10:40:56;8.90;99.90
17599;DHT22;8918;52.092;5.232;2023-12-20T10:43:23;8.90;99.90
17599;DHT22;8918;52.092;5.232;2023-12-20T10:45:51;8.90;99.90
17599;DHT22;8918;52.092;5.232;2023-12-20T10:48:18;8.90;99.90
17599;DHT22;8918;52.092;5.232;2023-12-20T10:50:44;8.90;99.90
17599;DHT22;8918;52.092;5.232;2023-12-20T10:53:10;8.90;99.90
17599;DHT22;8918;52.092;5.232;2023-12-20T10:55:38;9.00;99.90
17599;DHT22;8918;52.092;5.232;2023-12-20T10:58:09;9.00;99.90
17599;DHT22;8918;52.092;5.232;2023-12-20T11:00:40;9.20;99.90
17599;DHT22;8918;52.092;5.232;2023-12-20T11:03:11;9.20;99.90
17599;DHT22;8918;52.092;5.232;2023-12-20T11:05:42;9.40;99.90
17599;DHT22;8918;52.092;5.232;2023-12-20T11:08:16;9.60;99.90
17599;DHT22;8918;52.092;5.232;2023-12-20T11:11:08;9.70;99.90
17599;DHT22;8918;52.092;5.232;2023-12-20T11:13:48;9.50;99.90
17599;DHT22;8918;52.092;5.232;2023-12-20T11:16:18;9.50;99.90
17599;DHT22;8918;52.092;5.232;2023-12-20T11:18:45;9.60;99.90
17599;DHT22;8918;52.092;5.232;2023-12-20T11:21:11;9.60;99.90
17599;DHT22;8918;52.092;5.232;2023-12-20T11:23:36;9.70;99.90
17599;DHT22;8918;52.092;5.232;2023-12-20T11:26:03;9.70;99.90
17599;DHT22;8918;52.092;5.232;2023-12-20T11:28:28;9.70;99.90
17599;DHT22;8918;52.092;5.232;2023-12-20T11:30:56;9.70;99.90
17599;DHT22;8918;52.092;5.232;2023-12-20T11:33:31;9.60;99.90
17599;DHT22;8918;52.092;5.232;2023-12-20T11:35:57;9.50;99.90
17599;DHT22;8918;52.092;5.232;2023-12-20T11:38:24;9.50;99.90
17599;DHT22;8918;52.092;5.232;2023-12-20T11:40:50;9.50;99.90
17599;DHT22;8918;52.092;5.232;2023-12-20T11:43:53;9.40;99.90
17599;DHT22;8918;52.092;5.232;2023-12-20T11:46:19;9.40;99.90
17599;DHT22;8918;52.092;5.232;2023-12-20T11:48:46;9.40;99.90
17599;DHT22;8918;52.092;5.232;2023-12-20T11:51:13;9.40;99.90
17599;DHT22;8918;52.092;5.232;2023-12-20T11:53:40;9.40;99.90
17599;DHT22;8918;52.092;5.232;2023-12-20T11:56:06;9.40;99.90
17599;DHT22;8918;52.092;5.232;2023-12-20T11:58:33;9.40;99.90
17599;DHT22;8918;52.092;5.232;2023-12-20T12:00:59;9.40;99.90
17599;DHT22;8918;52.092;5.232;2023-12-20T12:03:25;9.30;99.90
17599;DHT22;8918;52.092;5.232;2023-12-20T12:05:50;9.30;99.90
17599;DHT22;8918;52.092;5.232;2023-12-20T12:08:19;9.30;99.90
17599;DHT22;8918;52.092;5.232;2023-12-20T12:10:45;9.30;99.90
17599;DHT22;8918;52.092;5.232;2023-12-20T12:13:11;9.40;99.90
17599;DHT22;8918;52.092;5.232;2023-12-20T12:15:37;9.30;99.90
17599;DHT22;8918;52.092;5.232;2023-12-20T12:18:03;9.30;99.90
17599;DHT22;8918;52.092;5.232;2023-12-20T12:20:29;9.30;99.90
17599;DHT22;8918;52.092;5.232;2023-12-20T12:23:13;9.30;99.90
17599;DHT22;8918;52.092;5.232;2023-12-20T12:25:39;9.40;99.90
17599;DHT22;8918;52.092;5.232;2023-12-20T12:28:05;9.40;99.90
17599;DHT22;8918;52.092;5.232;2023-12-20T12:30:31;9.40;99.90
17599;DHT22;8918;52.092;5.232;2023-12-20T12:32:56;9.40;99.90
17599;DHT22;8918;52.092;5.232;2023-12-20T12:35:23;9.50;99.90
17599;DHT22;8918;52.092;5.232;2023-12-20T12:37:48;9.50;99.90
17599;DHT22;8918;52.092;5.232;2023-12-20T12:40:16;9.50;99.90
17599;DHT22;8918;52.092;5.232;2023-12-20T12:42:43;9.50;99.90
17599;DHT22;8918;52.092;5.232;2023-12-20T12:45:09;9.50;99.90
17599;DHT22;8918;52.092;5.232;2023-12-20T12:47:35;9.50;99.90
17599;DHT22;8918;52.092;5.232;2023-12-20T12:50:01;9.50;99.90
17599;DHT22;8918;52.092;5.232;2023-12-20T12:52:27;9.50;99.90
17599;DHT22;8918;52.092;5.232;2023-12-20T12:54:53;9.50;99.90
17599;DHT22;8918;52.092;5.232;2023-12-20T12:57:19;9.50;99.90
17599;DHT22;8918;52.092;5.232;2023-12-20T12:59:45;9.50;99.90
17599;DHT22;8918;52.092;5.232;2023-12-20T13:02:12;9.50;99.90
17599;DHT22;8918;52.092;5.232;2023-12-20T13:04:39;9.50;99.90
17599;DHT22;8918;52.092;5.232;2023-12-20T13:07:05;9.50;99.90
17599;DHT22;8918;52.092;5.232;2023-12-20T13:09:31;9.40;99.90
17599;DHT22;8918;52.092;5.232;2023-12-20T13:11:57;9.40;99.90
17599;DHT22;8918;52.092;5.232;2023-12-20T13:14:22;9.50;99.90
17599;DHT22;8918;52.092;5.232;2023-12-20T13:16:48;9.40;99.90
17599;DHT22;8918;52.092;5.232;2023-12-20T13:19:13;9.50;99.90
17599;DHT22;8918;52.092;5.232;2023-12-20T13:21:39;9.50;99.90
17599;DHT22;8918;52.092;5.232;2023-12-20T13:24:05;9.50;99.90
17599;DHT22;8918;52.092;5.232;2023-12-20T13:26:31;9.60;99.90
17599;DHT22;8918;52.092;5.232;2023-12-20T13:28:58;9.50;99.90
17599;DHT22;8918;52.092;5.232;2023-12-20T13:31:24;9.50;99.90
17599;DHT22;8918;52.092;5.232;2023-12-20T13:33:49;9.50;99.90
17599;DHT22;8918;52.092;5.232;2023-12-20T13:36:15;9.50;99.90
17599;DHT22;8918;52.092;5.232;2023-12-20T13:38:40;9.50;99.90
17599;DHT22;8918;52.092;5.232;2023-12-20T13:41:06;9.50;99.90
17599;DHT22;8918;52.092;5.232;2023-12-20T13:43:32;9.50;99.90
17599;DHT22;8918;52.092;5.232;2023-12-20T13:45:58;9.50;99.90
17599;DHT22;8918;52.092;5.232;2023-12-20T13:48:24;9.50;99.90
17599;DHT22;8918;52.092;5.232;2023-12-20T13:50:50;9.50;99.90
17599;DHT22;8918;52.092;5.232;2023-12-20T13:53:16;9.50;99.90
17599;DHT22;8918;52.092;5.232;2023-12-20T13:55:41;9.50;99.90
17599;DHT22;8918;52.092;5.232;2023-12-20T13:58:07;9.50;99.90
17599;DHT22;8918;52.092;5.232;2023-12-20T14:00:32;9.50;99.90
17599;DHT22;8918;52.092;5.232;2023-12-20T14:02:58;9.60;99.90
17599;DHT22;8918;52.092;5.232;2023-12-20T14:05:24;9.70;99.90
17599;DHT22;8918;52.092;5.232;2023-12-20T14:07:49;9.70;99.90
17599;DHT22;8918;52.092;5.232;2023-12-20T14:10:15;9.70;99.90
17599;DHT22;8918;52.092;5.232;2023-12-20T14:12:41;9.80;99.90
17599;DHT22;8918;52.092;5.232;2023-12-20T14:15:07;9.70;99.90
17599;DHT22;8918;52.092;5.232;2023-12-20T14:17:38;9.70;99.90
17599;DHT22;8918;52.092;5.232;2023-12-20T14:20:06;9.60;99.90
17599;DHT22;8918;52.092;5.232;2023-12-20T14:22:32;9.70;99.90
17599;DHT22;8918;52.092;5.232;2023-12-20T14:24:58;9.60;99.90
17599;DHT22;8918;52.092;5.232;2023-12-20T14:27:23;9.50;99.90
17599;DHT22;8918;52.092;5.232;2023-12-20T14:29:53;9.60;99.90
17599;DHT22;8918;52.092;5.232;2023-12-20T14:32:19;9.60;99.90
17599;DHT22;8918;52.092;5.232;2023-12-20T14:34:44;9.50;99.90
17599;DHT22;8918;52.092;5.232;2023-12-20T14:37:10;9.50;99.90
17599;DHT22;8918;52.092;5.232;2023-12-20T14:39:35;9.40;99.90
17599;DHT22;8918;52.092;5.232;2023-12-20T14:42:09;9.50;99.90
17599;DHT22;8918;52.092;5.232;2023-12-20T14:44:39;9.60;99.90
17599;DHT22;8918;52.092;5.232;2023-12-20T14:47:05;9.60;99.90
17599;DHT22;8918;52.092;5.232;2023-12-20T14:49:30;9.60;99.90
17599;DHT22;8918;52.092;5.232;2023-12-20T14:51:56;9.60;99.90
17599;DHT22;8918;52.092;5.232;2023-12-20T14:54:22;9.60;99.90
17599;DHT22;8918;52.092;5.232;2023-12-20T14:56:47;9.50;99.90
17599;DHT22;8918;52.092;5.232;2023-12-20T14:59:13;9.40;99.90
17599;DHT22;8918;52.092;5.232;2023-12-20T15:01:39;9.30;99.90
17599;DHT22;8918;52.092;5.232;2023-12-20T15:04:09;9.30;99.90
17599;DHT22;8918;52.092;5.232;2023-12-20T15:06:35;9.40;99.90
17599;DHT22;8918;52.092;5.232;2023-12-20T15:09:00;9.40;99.90
17599;DHT22;8918;52.092;5.232;2023-12-20T15:11:27;9.30;99.90
17599;DHT22;8918;52.092;5.232;2023-12-20T15:13:53;9.30;99.90
17599;DHT22;8918;52.092;5.232;2023-12-20T15:16:23;9.40;99.90
17599;DHT22;8918;52.092;5.232;2023-12-20T15:18:49;9.40;99.90
17599;DHT22;8918;52.092;5.232;2023-12-20T15:21:16;9.40;99.90
17599;DHT22;8918;52.092;5.232;2023-12-20T15:23:42;9.30;99.90
17599;DHT22;8918;52.092;5.232;2023-12-20T15:26:20;9.40;99.90
17599;DHT22;8918;52.092;5.232;2023-12-20T15:28:46;9.40;99.90
17599;DHT22;8918;52.092;5.232;2023-12-20T15:31:12;9.30;99.90
17599;DHT22;8918;52.092;5.232;2023-12-20T15:33:40;9.30;99.90
17599;DHT22;8918;52.092;5.232;2023-12-20T15:36:06;9.30;99.90
17599;DHT22;8918;52.092;5.232;2023-12-20T15:38:32;9.40;99.90
17599;DHT22;8918;52.092;5.232;2023-12-20T15:40:57;9.40;99.90
17599;DHT22;8918;52.092;5.232;2023-12-20T15:43:23;9.40;99.90
17599;DHT22;8918;52.092;5.232;2023-12-20T15:45:50;9.30;99.90
17599;DHT22;8918;52.092;5.232;2023-12-20T15:48:16;9.30;99.90
17599;DHT22;8918;52.092;5.232;2023-12-20T15:50:45;9.30;99.90
17599;DHT22;8918;52.092;5.232;2023-12-20T15:53:11;9.30;99.90
17599;DHT22;8918;52.092;5.232;2023-12-20T15:55:37;9.30;99.90